Abha, Saudi Arabia
Current Conditions -  °F | °C
As of 4:00 AM on Saturday 20 Dec 2014 (Local Time) from OEAB Reporting Station
Clear Clear  
Wind Chill: 50°   Ceiling: Unl
Heat Index: 50°   Visibility: 6mi
Dew Point: 50°   Wind: 0mph
Humidity: 100%   Direction: NA
Pressure: 30.3"   Gusts: NA
Location:  18.23°N, 42.5°E
Report Text: OEAB 200100Z 00000KT 9000 SKC 10/10 Q1026 NOSIG
Loading
Personal Weather Stations






























Interactive Weather Map New forecast layout! Learn more

10-Day Weather Forecast

Advertisements
Track Severe Weather on mobile